Sherman, Wisconsin
Current Conditions -  °F | °C
As of 12:15 AM on Wednesday 26 Nov 2014 (Local Time) from KPBH Reporting Station
Overcast Overcast  
Wind Chill: -10°   Ceiling: 5000
Heat Index: -10°   Visibility: 10mi
Dew Point: -11°   Wind: 3mph
Humidity: 90%   Direction: 110°ESE
Pressure: 30.06"   Gusts: NA
Location:  45.9599°N, 90.2362°W
Report Text: KPBH 260615Z AUTO 11003KT 10SM OVC050 M10/M11 A3006 RMK AO2 T10961110
Loading
Personal Weather Stations






























Interactive Weather Map New forecast layout! Learn more

10-Day Weather Forecast

Advertisements
Track Severe Weather on mobile